createdAt,value
2019-01-20T00:02:20.918Z,37.48
2019-01-20T00:04:47.748Z,31.52
2019-01-20T00:07:14.913Z,29.60
2019-01-20T00:09:42.057Z,26.77
2019-01-20T00:12:08.963Z,26.60
2019-01-20T00:14:35.961Z,26.33
2019-01-20T00:17:03.002Z,28.10
2019-01-20T00:19:30.049Z,21.87
2019-01-20T00:21:56.990Z,24.55
2019-01-20T00:24:24.128Z,25.90
2019-01-20T00:26:50.953Z,32.40
2019-01-20T00:29:17.858Z,28.83
2019-01-20T00:31:44.916Z,31.37
2019-01-20T00:34:12.072Z,27.85
2019-01-20T00:36:39.102Z,29.20
2019-01-20T00:39:07.560Z,29.07
2019-01-20T00:41:34.473Z,32.23
2019-01-20T00:44:01.842Z,28.65
2019-01-20T00:46:28.996Z,26.17
2019-01-20T00:48:55.796Z,28.23
2019-01-20T00:51:23.160Z,33.42
2019-01-20T00:53:50.074Z,49.77
2019-01-20T00:56:17.080Z,49.00
2019-01-20T00:58:44.066Z,32.50
2019-01-20T01:01:11.671Z,28.23
2019-01-20T01:03:38.734Z,26.42
2019-01-20T01:06:05.836Z,29.65
2019-01-20T01:08:32.754Z,25.12
2019-01-20T01:10:59.632Z,27.17
2019-01-20T01:13:26.640Z,54.58
2019-01-20T01:15:53.447Z,51.02
2019-01-20T01:18:20.900Z,55.95
2019-01-20T01:20:47.736Z,49.85
2019-01-20T01:23:14.971Z,34.75
2019-01-20T01:25:41.913Z,31.95
2019-01-20T01:28:09.173Z,32.05
2019-01-20T01:30:36.198Z,25.40
2019-01-20T01:33:03.854Z,31.10
2019-01-20T01:35:30.640Z,34.35
2019-01-20T01:37:57.672Z,43.75
2019-01-20T01:40:26.409Z,31.35
2019-01-20T01:42:53.410Z,29.90
2019-01-20T01:45:20.445Z,36.20
2019-01-20T01:47:47.800Z,28.73
2019-01-20T01:50:15.605Z,39.42
2019-01-20T01:52:42.600Z,41.83
2019-01-20T01:55:11.709Z,32.78
2019-01-20T01:57:39.226Z,27.17
2019-01-20T02:00:15.025Z,19.40
2019-01-20T02:02:42.117Z,21.87
2019-01-20T02:05:09.164Z,25.48
2019-01-20T02:07:36.730Z,29.82
2019-01-20T02:10:06.150Z,28.65
2019-01-20T02:12:33.223Z,29.35
2019-01-20T02:15:00.245Z,25.25
2019-01-20T02:17:27.469Z,24.85
2019-01-20T02:19:54.372Z,26.00
2019-01-20T02:22:23.990Z,21.60
2019-01-20T02:24:51.257Z,22.07
2019-01-20T02:27:18.154Z,28.05
2019-01-20T02:29:45.208Z,25.68
2019-01-20T02:32:12.102Z,23.05
2019-01-20T02:34:39.793Z,24.05
2019-01-20T02:37:06.582Z,26.70
2019-01-20T02:39:33.386Z,23.83
2019-01-20T02:42:00.714Z,25.17
2019-01-20T02:44:27.610Z,25.43
2019-01-20T02:46:54.678Z,23.32
2019-01-20T02:49:21.469Z,26.40
2019-01-20T02:51:48.385Z,26.52
2019-01-20T02:54:15.187Z,27.05
2019-01-20T02:56:42.347Z,26.90
2019-01-20T02:59:09.588Z,24.23
2019-01-20T03:01:36.613Z,22.20
2019-01-20T03:04:04.106Z,33.30
2019-01-20T03:06:30.918Z,24.05
2019-01-20T03:08:57.844Z,27.00
2019-01-20T03:11:24.644Z,24.43
2019-01-20T03:13:51.698Z,32.42
2019-01-20T03:16:18.609Z,22.37
2019-01-20T03:18:46.181Z,24.85
2019-01-20T03:21:13.344Z,25.70
2019-01-20T03:23:40.160Z,25.27
2019-01-20T03:26:07.305Z,20.37
2019-01-20T03:28:34.581Z,25.20
2019-01-20T03:31:01.732Z,24.32
2019-01-20T03:33:28.559Z,30.60
2019-01-20T03:35:55.942Z,29.40
2019-01-20T03:38:22.993Z,23.50
2019-01-20T03:40:50.177Z,23.98
2019-01-20T03:43:17.479Z,29.27
2019-01-20T03:45:44.481Z,30.45
2019-01-20T03:48:11.310Z,27.45
2019-01-20T03:50:38.390Z,31.15
2019-01-20T03:53:05.449Z,28.20
2019-01-20T03:55:32.344Z,29.32
2019-01-20T03:57:59.357Z,24.02
2019-01-20T04:00:26.349Z,27.82
2019-01-20T04:02:58.907Z,18.35
2019-01-20T04:05:26.161Z,24.32
2019-01-20T04:07:53.398Z,26.85
2019-01-20T04:10:20.704Z,29.25
2019-01-20T04:12:47.874Z,23.35
2019-01-20T04:15:15.691Z,27.40
2019-01-20T04:17:42.900Z,26.80
2019-01-20T04:20:10.268Z,30.57
2019-01-20T04:22:37.337Z,24.37
2019-01-20T04:25:06.856Z,22.95
2019-01-20T04:27:34.110Z,26.73
2019-01-20T04:30:01.318Z,28.95
2019-01-20T04:32:28.799Z,27.05
2019-01-20T04:34:55.601Z,19.70
2019-01-20T04:37:22.404Z,26.40
2019-01-20T04:39:49.210Z,26.97
2019-01-20T04:42:16.111Z,23.30
2019-01-20T04:44:43.185Z,25.20
2019-01-20T04:47:10.081Z,26.37
2019-01-20T04:49:36.894Z,27.77
2019-01-20T04:52:03.893Z,25.45
2019-01-20T04:54:30.807Z,21.52
2019-01-20T04:56:57.601Z,27.55
2019-01-20T04:59:24.671Z,28.98
2019-01-20T05:01:51.581Z,26.30
2019-01-20T05:04:18.486Z,23.83
2019-01-20T05:06:45.625Z,22.05
2019-01-20T05:09:12.690Z,23.60
2019-01-20T05:11:39.493Z,24.23
2019-01-20T05:14:06.488Z,20.25
2019-01-20T05:16:33.390Z,30.57
2019-01-20T05:19:00.195Z,32.63
2019-01-20T05:21:27.264Z,32.38
2019-01-20T05:23:54.293Z,25.45
2019-01-20T05:26:21.385Z,31.68
2019-01-20T05:28:48.428Z,32.83
2019-01-20T05:31:15.348Z,26.15
2019-01-20T05:33:42.490Z,44.05
2019-01-20T05:36:09.912Z,44.05
2019-01-20T05:38:36.714Z,44.70
2019-01-20T05:41:03.727Z,28.57
2019-01-20T05:43:30.878Z,23.60
2019-01-20T05:45:57.956Z,20.97
2019-01-20T05:48:24.758Z,24.00
2019-01-20T05:50:51.932Z,29.55
2019-01-20T05:53:18.980Z,31.73
2019-01-20T05:55:45.944Z,34.50
2019-01-20T05:58:12.750Z,41.75
2019-01-20T06:00:39.898Z,46.80
2019-01-20T06:03:06.768Z,43.02
2019-01-20T06:05:33.566Z,37.88
2019-01-20T06:08:00.631Z,41.05
2019-01-20T06:10:27.777Z,33.38
2019-01-20T06:12:54.702Z,30.25
2019-01-20T06:15:22.598Z,34.73
2019-01-20T06:17:49.770Z,36.90
2019-01-20T06:20:17.421Z,49.93
2019-01-20T06:22:44.698Z,49.33
2019-01-20T06:25:11.701Z,40.73
2019-01-20T06:27:38.891Z,32.88
2019-01-20T06:30:15.410Z,29.80
2019-01-20T06:32:42.316Z,25.08
2019-01-20T06:35:09.368Z,35.75
2019-01-20T06:37:36.629Z,36.05
2019-01-20T06:40:04.258Z,35.75
2019-01-20T06:42:31.085Z,53.02
2019-01-20T06:44:57.905Z,49.35
2019-01-20T06:47:24.978Z,52.00
2019-01-20T06:49:52.046Z,53.45
2019-01-20T06:52:19.098Z,46.20
2019-01-20T06:54:46.010Z,43.78
2019-01-20T06:57:13.092Z,37.05
2019-01-20T06:59:39.911Z,33.20
2019-01-20T07:02:06.814Z,44.10
2019-01-20T07:04:33.969Z,48.65
2019-01-20T07:07:00.969Z,46.73
2019-01-20T07:09:27.882Z,34.38
2019-01-20T07:11:54.780Z,31.95
2019-01-20T07:14:21.601Z,34.75
2019-01-20T07:16:48.886Z,26.68
2019-01-20T07:19:15.762Z,30.55
2019-01-20T07:21:42.667Z,31.90
2019-01-20T07:24:09.488Z,31.77
2019-01-20T07:26:36.828Z,29.50
2019-01-20T07:29:04.117Z,26.73
2019-01-20T07:31:31.182Z,38.90
2019-01-20T07:33:58.350Z,51.00
2019-01-20T07:36:25.148Z,58.70
2019-01-20T07:38:52.197Z,53.70
2019-01-20T07:41:18.993Z,51.65
2019-01-20T07:43:46.058Z,54.23
2019-01-20T07:46:12.858Z,50.73
2019-01-20T07:48:39.665Z,51.70
2019-01-20T07:51:06.563Z,45.75
2019-01-20T07:53:33.634Z,40.83
2019-01-20T07:56:00.434Z,46.45
2019-01-20T07:58:27.456Z,46.00
2019-01-20T08:00:54.274Z,52.40
2019-01-20T08:03:21.245Z,52.35
2019-01-20T08:05:48.165Z,52.25
2019-01-20T08:08:15.329Z,63.20
2019-01-20T08:10:42.426Z,64.72
2019-01-20T08:13:09.337Z,55.83
2019-01-20T08:15:36.366Z,97.30
2019-01-20T08:18:03.762Z,87.08
2019-01-20T08:20:30.724Z,76.22
2019-01-20T08:22:57.682Z,74.75
2019-01-20T08:25:25.022Z,62.75
2019-01-20T08:27:52.089Z,40.80
2019-01-20T08:30:21.073Z,33.63
2019-01-20T08:32:48.380Z,30.65
2019-01-20T08:35:15.345Z,37.73
2019-01-20T08:37:42.337Z,37.48
2019-01-20T08:40:12.535Z,29.15
2019-01-20T08:42:40.158Z,35.03
2019-01-20T08:45:14.894Z,46.95
2019-01-20T08:47:51.810Z,37.13
2019-01-20T08:50:18.991Z,32.45
2019-01-20T08:52:45.892Z,31.87
2019-01-20T08:55:13.549Z,34.43
2019-01-20T08:57:40.371Z,38.78
2019-01-20T09:00:13.593Z,27.30
2019-01-20T09:02:40.408Z,31.27
2019-01-20T09:05:07.488Z,31.60
2019-01-20T09:07:34.498Z,35.23
2019-01-20T09:10:01.406Z,34.23
2019-01-20T09:12:28.509Z,35.60
2019-01-20T09:14:55.613Z,34.45
2019-01-20T09:17:22.523Z,32.88
2019-01-20T09:19:49.573Z,34.58
2019-01-20T09:22:16.765Z,34.85
2019-01-20T09:24:43.670Z,33.88
2019-01-20T09:27:10.490Z,36.75
2019-01-20T09:29:37.666Z,45.03
2019-01-20T09:32:04.690Z,37.60
2019-01-20T09:34:31.637Z,50.88
2019-01-20T09:36:58.612Z,46.13
2019-01-20T09:39:25.438Z,39.35
2019-01-20T09:41:52.739Z,45.73
2019-01-20T09:44:20.059Z,38.38
2019-01-20T09:46:46.954Z,39.90
2019-01-20T09:49:14.050Z,36.55
2019-01-20T09:51:40.937Z,40.80
2019-01-20T09:54:08.262Z,35.40
2019-01-20T09:56:35.821Z,41.77
2019-01-20T09:59:02.998Z,50.98
2019-01-20T10:01:30.283Z,38.25
2019-01-20T10:03:57.601Z,36.42
2019-01-20T10:06:24.521Z,38.90
2019-01-20T10:08:51.586Z,43.05
2019-01-20T10:11:18.998Z,48.05
2019-01-20T10:13:46.055Z,56.05
2019-01-20T10:16:13.059Z,45.85
2019-01-20T10:18:41.297Z,40.70
2019-01-20T10:21:08.633Z,44.20
2019-01-20T10:23:35.666Z,35.28
2019-01-20T10:26:02.560Z,42.90
2019-01-20T10:28:30.258Z,48.48
2019-01-20T10:30:57.174Z,36.90
2019-01-20T10:33:24.105Z,40.78
2019-01-20T10:36:06.981Z,34.45
2019-01-20T10:38:37.183Z,65.40
2019-01-20T10:41:03.264Z,45.00
2019-01-20T10:43:30.165Z,43.52
2019-01-20T10:45:57.321Z,40.80
2019-01-20T10:48:24.653Z,43.05
2019-01-20T10:50:52.062Z,42.62
2019-01-20T10:53:19.096Z,43.17
2019-01-20T10:55:46.383Z,34.65
2019-01-20T10:58:13.429Z,38.20
2019-01-20T11:00:40.770Z,37.25
2019-01-20T11:03:08.022Z,42.55
2019-01-20T11:05:35.285Z,41.40
2019-01-20T11:08:02.435Z,46.68
2019-01-20T11:10:29.441Z,45.58
2019-01-20T11:12:56.350Z,44.42
2019-01-20T11:15:23.481Z,33.35
2019-01-20T11:17:50.464Z,34.92
2019-01-20T11:20:17.482Z,45.60
2019-01-20T11:22:44.661Z,43.38
2019-01-20T11:25:14.536Z,47.33
2019-01-20T11:27:41.721Z,43.78
2019-01-20T11:30:09.902Z,37.13
2019-01-20T11:32:42.321Z,42.10
2019-01-20T11:35:08.493Z,46.90
2019-01-20T11:37:35.810Z,48.98
2019-01-20T11:40:04.170Z,46.70
2019-01-20T11:42:31.142Z,48.00
2019-01-20T11:44:58.366Z,36.40
2019-01-20T11:47:25.538Z,39.25
2019-01-20T11:49:52.945Z,41.08
2019-01-20T11:52:20.006Z,43.08
2019-01-20T11:54:47.165Z,45.65
2019-01-20T11:57:15.182Z,36.70
2019-01-20T11:59:42.371Z,35.80
2019-01-20T12:02:09.380Z,41.10
2019-01-20T12:04:36.457Z,37.53
2019-01-20T12:07:04.094Z,40.95
2019-01-20T12:09:31.638Z,52.73
2019-01-20T12:11:59.420Z,41.20
2019-01-20T12:14:26.739Z,39.38
2019-01-20T12:16:55.191Z,46.30
2019-01-20T12:19:23.289Z,47.03
2019-01-20T12:21:50.978Z,57.20
2019-01-20T12:24:19.463Z,52.30
2019-01-20T12:26:47.945Z,56.48
2019-01-20T12:29:14.998Z,51.02
2019-01-20T12:31:42.197Z,43.87
2019-01-20T12:34:09.789Z,40.60
2019-01-20T12:36:37.109Z,43.33
2019-01-20T12:39:07.880Z,42.70
2019-01-20T12:41:35.297Z,49.00
2019-01-20T12:44:02.507Z,38.58
2019-01-20T12:46:29.921Z,44.25
2019-01-20T12:48:57.358Z,42.03
2019-01-20T12:51:28.652Z,39.05
2019-01-20T12:53:54.686Z,40.98
2019-01-20T12:56:21.847Z,45.50
2019-01-20T12:58:49.109Z,48.30
2019-01-20T13:01:16.722Z,45.43
2019-01-20T13:03:44.450Z,41.53
2019-01-20T13:06:11.621Z,35.33
2019-01-20T13:08:39.217Z,39.20
2019-01-20T13:11:06.781Z,41.20
2019-01-20T13:13:33.957Z,35.52
2019-01-20T13:16:02.177Z,46.23
2019-01-20T13:18:29.769Z,36.42
2019-01-20T13:20:57.418Z,39.23
2019-01-20T13:23:25.270Z,39.35
2019-01-20T13:25:52.360Z,41.10
2019-01-20T13:28:19.812Z,41.02
2019-01-20T13:30:47.092Z,38.30
2019-01-20T13:33:14.529Z,41.25
2019-01-20T13:35:42.079Z,48.78
2019-01-20T13:38:17.362Z,52.27
2019-01-20T13:40:50.721Z,49.05
2019-01-20T13:43:18.480Z,45.75
2019-01-20T13:45:45.934Z,43.87
2019-01-20T13:48:13.458Z,61.20
2019-01-20T13:50:40.638Z,40.83
2019-01-20T13:53:07.864Z,42.93
2019-01-20T13:55:35.293Z,46.92
2019-01-20T13:58:03.014Z,52.67
2019-01-20T14:00:30.754Z,43.83
2019-01-20T14:02:58.483Z,54.38
2019-01-20T14:05:25.488Z,44.93
2019-01-20T14:07:53.515Z,50.98
2019-01-20T14:10:21.181Z,51.95
2019-01-20T14:12:48.974Z,44.27
2019-01-20T14:15:16.523Z,48.42
2019-01-20T14:17:44.076Z,50.88
2019-01-20T14:20:19.821Z,48.30
2019-01-20T14:22:47.581Z,52.67
2019-01-20T14:25:16.983Z,45.43
2019-01-20T14:27:44.770Z,47.05
2019-01-20T14:30:17.261Z,43.92
2019-01-20T14:32:45.081Z,43.17
2019-01-20T14:35:12.638Z,43.08
2019-01-20T14:37:40.066Z,54.70
2019-01-20T14:40:08.347Z,57.73
2019-01-20T14:42:36.029Z,54.00
2019-01-20T14:45:04.948Z,51.50
2019-01-20T14:47:32.497Z,49.60
2019-01-20T14:49:59.990Z,52.60
2019-01-20T14:52:27.308Z,48.38
2019-01-20T14:54:54.216Z,53.98
2019-01-20T14:57:21.953Z,47.08
2019-01-20T14:59:49.886Z,49.03
2019-01-20T15:02:16.768Z,41.77
2019-01-20T15:04:44.131Z,58.50
2019-01-20T15:07:11.597Z,64.35
2019-01-20T15:09:39.138Z,56.90
2019-01-20T15:12:07.573Z,66.00
2019-01-20T15:14:35.258Z,72.92
2019-01-20T15:17:03.205Z,58.13
2019-01-20T15:19:30.359Z,67.10
2019-01-20T15:21:58.188Z,57.80
2019-01-20T15:24:31.053Z,59.73
2019-01-20T15:26:55.312Z,49.42
2019-01-20T15:29:22.390Z,53.92
2019-01-20T15:31:49.585Z,47.10
2019-01-20T15:34:17.198Z,43.52
2019-01-20T15:36:45.163Z,46.15
2019-01-20T15:39:12.420Z,40.92
2019-01-20T15:41:40.114Z,41.65
2019-01-20T15:44:07.381Z,38.50
2019-01-20T15:46:35.021Z,42.80
2019-01-20T15:49:02.664Z,46.30
2019-01-20T15:51:29.978Z,42.88
2019-01-20T15:53:57.140Z,46.05
2019-01-20T15:56:24.337Z,42.48
2019-01-20T15:58:51.731Z,41.13
2019-01-20T16:01:19.442Z,38.20
2019-01-20T16:03:47.402Z,41.08
2019-01-20T16:06:15.195Z,39.95
2019-01-20T16:08:42.345Z,56.10
2019-01-20T16:11:09.970Z,45.08
2019-01-20T16:13:37.794Z,71.77
2019-01-20T16:16:06.066Z,52.75
2019-01-20T16:18:34.026Z,56.55
2019-01-20T16:21:01.643Z,49.55
2019-01-20T16:23:29.113Z,47.73
2019-01-20T16:25:56.281Z,41.88
2019-01-20T16:28:24.166Z,50.55
2019-01-20T16:30:51.870Z,44.05
2019-01-20T16:33:24.821Z,45.83
2019-01-20T16:35:49.082Z,47.15
2019-01-20T16:38:16.938Z,45.33
2019-01-20T16:40:44.590Z,40.65
2019-01-20T16:43:12.266Z,39.03
2019-01-20T16:45:42.452Z,52.85
2019-01-20T16:48:10.533Z,46.68
2019-01-20T16:50:38.352Z,51.00
2019-01-20T16:53:05.462Z,56.70
2019-01-20T16:55:32.813Z,59.20
2019-01-20T16:58:00.390Z,56.98
2019-01-20T17:00:29.280Z,54.88
2019-01-20T17:02:56.686Z,60.80
2019-01-20T17:05:26.755Z,64.80
2019-01-20T17:07:53.672Z,69.55
2019-01-20T17:10:25.654Z,76.30
2019-01-20T17:12:53.467Z,120.35
2019-01-20T17:15:23.126Z,104.03
2019-01-20T17:17:50.626Z,137.47
2019-01-20T17:20:18.172Z,96.02
2019-01-20T17:22:45.760Z,110.50
2019-01-20T17:25:13.353Z,95.35
2019-01-20T17:27:41.318Z,69.70
2019-01-20T17:30:12.501Z,74.97
2019-01-20T17:32:40.094Z,70.60
2019-01-20T17:35:08.621Z,58.65
2019-01-20T17:37:36.383Z,53.25
2019-01-20T17:40:05.469Z,51.73
2019-01-20T17:42:33.628Z,59.70
2019-01-20T17:45:01.683Z,67.15
2019-01-20T17:47:29.631Z,67.27
2019-01-20T17:49:57.490Z,115.25
2019-01-20T17:52:25.040Z,141.20
2019-01-20T17:54:52.394Z,202.07
2019-01-20T17:57:19.965Z,192.45
2019-01-20T17:59:47.603Z,91.80
2019-01-20T18:02:15.265Z,81.67
2019-01-20T18:04:42.770Z,79.47
2019-01-20T18:07:10.321Z,73.17
2019-01-20T18:09:38.180Z,62.65
2019-01-20T18:12:05.772Z,73.00
2019-01-20T18:14:33.413Z,74.90
2019-01-20T18:17:00.837Z,65.87
2019-01-20T18:19:28.572Z,83.35
2019-01-20T18:21:59.061Z,93.92
2019-01-20T18:24:26.610Z,69.40
2019-01-20T18:26:54.157Z,62.62
2019-01-20T18:29:22.422Z,61.15
2019-01-20T18:31:49.782Z,51.02
2019-01-20T18:34:17.173Z,49.42
2019-01-20T18:36:45.025Z,72.00
2019-01-20T18:39:12.644Z,59.55
2019-01-20T18:41:40.238Z,53.20
2019-01-20T18:44:08.114Z,53.33
2019-01-20T18:46:35.317Z,57.10
2019-01-20T18:49:03.464Z,54.13
2019-01-20T18:51:31.314Z,54.63
2019-01-20T18:53:58.581Z,49.50
2019-01-20T18:56:25.843Z,51.65
2019-01-20T18:58:53.248Z,48.08
2019-01-20T19:01:20.849Z,43.65
2019-01-20T19:03:48.270Z,50.73
2019-01-20T19:06:15.484Z,48.50
2019-01-20T19:08:43.273Z,54.13
2019-01-20T19:11:10.604Z,43.05
2019-01-20T19:13:38.346Z,45.58
2019-01-20T19:16:09.050Z,52.43
2019-01-20T19:18:35.915Z,48.78
2019-01-20T19:21:03.964Z,39.53
2019-01-20T19:23:31.832Z,73.60
2019-01-20T19:25:59.867Z,64.87
2019-01-20T19:28:27.401Z,71.07
2019-01-20T19:30:55.573Z,149.47
2019-01-20T19:33:22.930Z,90.92
2019-01-20T19:35:50.717Z,64.42
2019-01-20T19:38:18.224Z,60.65
2019-01-20T19:40:45.537Z,52.90
2019-01-20T19:43:13.370Z,66.30
2019-01-20T19:45:40.738Z,46.85
2019-01-20T19:48:13.000Z,55.92
2019-01-20T19:50:37.522Z,51.53
2019-01-20T19:53:04.965Z,49.15
2019-01-20T19:55:32.997Z,51.08
2019-01-20T19:58:00.684Z,56.50
2019-01-20T20:00:28.890Z,68.55
2019-01-20T20:02:56.580Z,56.60
2019-01-20T20:05:24.283Z,56.18
2019-01-20T20:07:52.166Z,52.40
2019-01-20T20:10:21.605Z,52.48
2019-01-20T20:12:49.717Z,57.88
2019-01-20T20:15:18.945Z,53.25
2019-01-20T20:17:46.118Z,48.63
2019-01-20T20:20:14.876Z,51.02
2019-01-20T20:22:42.938Z,55.92
2019-01-20T20:25:10.777Z,48.35
2019-01-20T20:27:38.129Z,59.60
2019-01-20T20:30:11.544Z,68.90
2019-01-20T20:32:38.837Z,68.05
2019-01-20T20:35:07.263Z,60.28
2019-01-20T20:37:34.485Z,67.12
2019-01-20T20:40:02.214Z,53.50
2019-01-20T20:42:30.172Z,55.75
2019-01-20T20:44:57.941Z,53.87
2019-01-20T20:47:25.103Z,56.75
2019-01-20T20:49:52.402Z,58.02
2019-01-20T20:52:19.742Z,51.88
2019-01-20T20:54:47.218Z,56.00
2019-01-20T20:57:15.118Z,66.95
2019-01-20T20:59:43.177Z,51.73
2019-01-20T21:02:10.604Z,51.75
2019-01-20T21:04:38.193Z,42.17
2019-01-20T21:07:05.766Z,54.90
2019-01-20T21:09:33.600Z,61.45
2019-01-20T21:12:01.104Z,68.35
2019-01-20T21:14:28.531Z,73.42
2019-01-20T21:16:56.046Z,67.20
2019-01-20T21:19:23.440Z,59.38
2019-01-20T21:21:51.075Z,58.98
2019-01-20T21:24:18.655Z,51.92
2019-01-20T21:26:46.476Z,55.58
2019-01-20T21:29:14.065Z,59.40
2019-01-20T21:31:41.860Z,60.12
2019-01-20T21:34:09.646Z,45.67
2019-01-20T21:36:37.117Z,52.83
2019-01-20T21:39:06.710Z,55.10
2019-01-20T21:41:34.682Z,51.83
2019-01-20T21:44:02.316Z,52.17
2019-01-20T21:46:29.828Z,49.03
2019-01-20T21:48:57.137Z,50.25
2019-01-20T21:51:24.663Z,65.67
2019-01-20T21:53:51.964Z,60.03
2019-01-20T21:56:19.976Z,70.85
2019-01-20T21:58:47.794Z,57.73
2019-01-20T22:01:15.402Z,59.77
2019-01-20T22:03:43.413Z,52.50
2019-01-20T22:06:10.624Z,67.35
2019-01-20T22:08:38.228Z,58.30
2019-01-20T22:11:06.093Z,59.45
2019-01-20T22:13:33.553Z,64.58
2019-01-20T22:16:01.327Z,60.83
2019-01-20T22:18:29.058Z,57.30
2019-01-20T22:20:56.264Z,55.88
2019-01-20T22:23:24.142Z,54.53
2019-01-20T22:25:51.570Z,56.70
2019-01-20T22:28:19.026Z,58.38
2019-01-20T22:30:46.436Z,58.73
2019-01-20T22:33:14.009Z,47.80
2019-01-20T22:35:41.452Z,53.73
2019-01-20T22:38:08.657Z,48.85
2019-01-20T22:40:36.172Z,48.75
2019-01-20T22:43:03.809Z,49.75
2019-01-20T22:45:31.222Z,40.28
2019-01-20T22:47:59.189Z,50.85
2019-01-20T22:50:26.887Z,41.37
2019-01-20T22:52:54.475Z,49.18
2019-01-20T22:55:22.398Z,57.75
2019-01-20T22:57:49.669Z,59.35
2019-01-20T23:00:28.694Z,87.05
2019-01-20T23:02:56.049Z,73.45
2019-01-20T23:05:23.452Z,61.55
2019-01-20T23:07:51.113Z,59.85
2019-01-20T23:10:18.713Z,70.10
2019-01-20T23:12:46.129Z,63.68
2019-01-20T23:15:13.487Z,49.23
2019-01-20T23:17:40.985Z,57.55
2019-01-20T23:20:10.112Z,54.80
2019-01-20T23:22:37.726Z,54.23
2019-01-20T23:25:05.372Z,53.55
2019-01-20T23:27:32.967Z,44.73
2019-01-20T23:30:00.370Z,39.73
2019-01-20T23:32:27.981Z,46.18
2019-01-20T23:34:55.057Z,42.45
2019-01-20T23:37:22.656Z,50.90
2019-01-20T23:39:50.233Z,43.78
2019-01-20T23:42:17.970Z,46.48
2019-01-20T23:44:45.853Z,48.30
2019-01-20T23:47:15.263Z,44.90
2019-01-20T23:49:42.997Z,45.70
2019-01-20T23:52:10.674Z,42.03
2019-01-20T23:54:38.069Z,42.98
2019-01-20T23:57:05.329Z,42.27
2019-01-20T23:59:32.392Z,37.33
